Time;durP1;ratioP1;P1;durP2;ratioP2;P2;SDS_P1;SDS_P2;PMS_P1;PMS_P2;Temp;Humidity;BMP_temperature;BMP_pressure;BME280_temperature;BME280_humidity;BME280_pressure;Samples;Min_cycle;Max_cycle;Signal;HPM_P1;HPM_P2
2023/01/26 00:00:49;;;;;;;84.55;60.60;;;13.40;59.90;;;;;;4922873;28;91809;-50
2023/01/26 00:03:14;;;;;;;84.07;60.25;;;13.40;59.70;;;;;;4929920;28;93476;-51
2023/01/26 00:05:40;;;;;;;84.07;61.45;;;13.40;59.90;;;;;;4925278;28;92266;-46
2023/01/26 00:08:07;;;;;;;80.88;60.40;;;13.40;59.60;;;;;;4913409;28;91415;-51
2023/01/26 00:10:38;;;;;;;84.72;61.22;;;13.30;59.80;;;;;;4925235;28;89995;-52
2023/01/26 00:13:06;;;;;;;80.68;59.00;;;13.40;60.00;;;;;;4923406;28;92784;-52
2023/01/26 00:15:33;;;;;;;82.47;61.15;;;13.30;59.80;;;;;;4932340;28;91265;-47
2023/01/26 00:17:59;;;;;;;78.20;59.47;;;13.30;59.90;;;;;;4931550;28;93378;-51
2023/01/26 00:20:26;;;;;;;80.95;59.90;;;13.30;59.80;;;;;;4921978;28;90738;-51
2023/01/26 00:22:52;;;;;;;84.13;59.72;;;13.30;60.30;;;;;;4932944;28;90796;-52
2023/01/26 00:25:17;;;;;;;79.95;59.05;;;13.30;59.80;;;;;;4912028;28;92406;-49
2023/01/26 00:27:43;;;;;;;81.22;60.58;;;13.30;59.60;;;;;;4907823;28;95426;-51
2023/01/26 00:30:09;;;;;;;82.80;60.38;;;13.30;59.80;;;;;;4920851;28;89857;-48
2023/01/26 00:32:35;;;;;;;78.40;60.22;;;13.30;59.60;;;;;;4917262;28;90504;-49
2023/01/26 00:35:02;;;;;;;80.47;60.28;;;13.20;59.60;;;;;;4921891;28;92332;-48
2023/01/26 00:37:28;;;;;;;77.35;59.33;;;13.30;59.80;;;;;;4929675;28;91149;-52
2023/01/26 00:39:53;;;;;;;79.45;58.75;;;13.30;59.70;;;;;;4922507;28;94678;-49
2023/01/26 00:42:20;;;;;;;80.55;59.35;;;13.30;59.60;;;;;;4924266;28;91639;-52
2023/01/26 00:44:46;;;;;;;81.47;58.75;;;13.40;59.60;;;;;;4912440;28;93668;-51
2023/01/26 00:47:12;;;;;;;81.28;59.38;;;13.30;59.60;;;;;;4921794;28;90541;-47
2023/01/26 00:49:38;;;;;;;79.38;59.45;;;13.30;59.70;;;;;;4917580;28;91163;-51
2023/01/26 00:52:04;;;;;;;82.72;60.03;;;13.30;59.80;;;;;;4920648;28;92843;-52
2023/01/26 00:54:30;;;;;;;82.00;58.72;;;13.30;59.60;;;;;;4924005;28;93038;-53
2023/01/26 00:56:56;;;;;;;79.28;58.70;;;13.30;59.70;;;;;;4925435;28;90975;-49
2023/01/26 00:59:22;;;;;;;78.93;59.00;;;13.30;59.50;;;;;;4927115;28;90078;-48
2023/01/26 01:01:48;;;;;;;80.28;59.95;;;13.30;59.70;;;;;;4914922;28;90028;-49
2023/01/26 01:04:14;;;;;;;82.32;58.90;;;13.30;59.70;;;;;;4912474;28;93735;-52
2023/01/26 01:06:40;;;;;;;85.40;60.20;;;13.30;59.50;;;;;;4926278;28;93404;-48
2023/01/26 01:09:06;;;;;;;80.18;59.88;;;13.30;59.60;;;;;;4918433;28;92781;-49
2023/01/26 01:11:31;;;;;;;79.70;58.83;;;13.30;59.60;;;;;;4909429;28;94562;-50
2023/01/26 01:13:58;;;;;;;76.97;59.22;;;13.30;59.60;;;;;;4924431;28;94454;-47
2023/01/26 01:16:24;;;;;;;78.82;58.83;;;13.30;59.70;;;;;;4920180;28;95227;-54
2023/01/26 01:18:53;;;;;;;77.75;58.08;;;13.30;59.70;;;;;;4929743;28;92689;-48
2023/01/26 01:21:20;;;;;;;81.85;58.72;;;13.30;59.50;;;;;;4887959;28;95186;-50
2023/01/26 01:23:46;;;;;;;83.85;59.53;;;13.30;59.50;;;;;;4880323;28;93202;-48
2023/01/26 01:26:13;;;;;;;79.20;58.53;;;13.30;59.50;;;;;;4885742;28;92467;-50
2023/01/26 01:28:40;;;;;;;77.40;58.05;;;13.30;59.40;;;;;;4905066;28;99801;-51
2023/01/26 01:31:08;;;;;;;78.32;57.95;;;13.20;59.30;;;;;;4908684;28;90389;-50
2023/01/26 01:33:34;;;;;;;79.70;59.20;;;13.20;59.60;;;;;;4908909;28;91400;-52
2023/01/26 01:36:09;;;;;;;78.32;58.15;;;13.30;59.50;;;;;;4921505;28;91353;-50
2023/01/26 01:38:35;;;;;;;77.03;57.38;;;13.20;59.50;;;;;;4914291;28;91028;-52
2023/01/26 01:41:00;;;;;;;80.18;59.30;;;13.30;59.40;;;;;;4912625;28;91147;-52
2023/01/26 01:43:27;;;;;;;76.38;57.30;;;13.30;59.40;;;;;;4915128;28;92020;-51
2023/01/26 01:45:54;;;;;;;77.15;58.05;;;13.30;59.90;;;;;;4920861;28;95578;-48
2023/01/26 01:48:24;;;;;;;81.20;58.75;;;13.30;59.40;;;;;;4912704;28;92441;-53
2023/01/26 01:50:55;;;;;;;76.63;57.40;;;13.30;59.30;;;;;;4924086;28;90644;-46
2023/01/26 01:53:26;;;;;;;76.22;57.92;;;13.20;59.40;;;;;;4924193;28;91893;-46
2023/01/26 01:55:58;;;;;;;77.68;58.38;;;13.30;59.40;;;;;;4918577;28;93176;-51
2023/01/26 01:58:28;;;;;;;80.10;58.45;;;13.30;59.40;;;;;;4922208;28;94243;-46
2023/01/26 02:00:54;;;;;;;76.63;58.13;;;13.20;59.40;;;;;;4910766;28;92454;-47
2023/01/26 02:03:21;;;;;;;77.88;58.67;;;13.20;59.40;;;;;;4927373;28;93920;-49
2023/01/26 02:05:46;;;;;;;80.13;58.63;;;13.20;59.40;;;;;;4910634;28;92085;-52
2023/01/26 02:08:14;;;;;;;79.28;57.78;;;13.30;59.30;;;;;;4914470;28;95721;-51
2023/01/26 02:10:43;;;;;;;76.47;57.72;;;13.30;59.10;;;;;;4905889;28;90872;-52
2023/01/26 02:13:10;;;;;;;81.05;59.10;;;13.20;59.20;;;;;;4919104;28;90915;-50
2023/01/26 02:15:36;;;;;;;76.88;57.92;;;13.20;59.40;;;;;;4916967;28;91853;-48
2023/01/26 02:18:03;;;;;;;81.35;59.58;;;13.30;59.30;;;;;;4914191;28;91825;-51
2023/01/26 02:20:43;;;;;;;74.85;56.97;;;13.20;59.30;;;;;;4916762;28;92174;-50
2023/01/26 02:23:09;;;;;;;75.90;57.97;;;13.30;59.30;;;;;;4914694;28;94425;-49
2023/01/26 02:25:46;;;;;;;79.65;57.20;;;13.20;59.30;;;;;;4906090;28;93408;-48
2023/01/26 02:28:12;;;;;;;80.40;58.05;;;13.20;59.30;;;;;;4922472;28;91452;-53
2023/01/26 02:30:38;;;;;;;77.88;58.05;;;13.20;59.30;;;;;;4915800;28;91118;-54
2023/01/26 02:33:03;;;;;;;76.30;57.03;;;13.20;59.30;;;;;;4924495;28;93135;-53
2023/01/26 02:35:29;;;;;;;72.07;56.35;;;13.30;59.10;;;;;;4906814;28;90813;-51
2023/01/26 02:37:55;;;;;;;74.90;57.38;;;13.20;59.10;;;;;;4914937;28;90837;-53
2023/01/26 02:40:42;;;;;;;80.20;58.05;;;13.20;59.10;;;;;;4911368;28;95747;-45
2023/01/26 02:43:08;;;;;;;79.40;57.50;;;13.20;59.20;;;;;;4923049;28;90604;-52
2023/01/26 02:45:34;;;;;;;76.07;57.65;;;13.20;59.30;;;;;;4917216;28;93105;-50
2023/01/26 02:48:03;;;;;;;78.15;58.45;;;13.20;59.10;;;;;;4930224;28;90056;-48
2023/01/26 02:50:29;;;;;;;73.15;56.13;;;13.20;59.10;;;;;;4913140;28;93626;-49
2023/01/26 02:52:56;;;;;;;73.30;56.65;;;13.20;59.20;;;;;;4913228;28;92640;-50
2023/01/26 02:55:21;;;;;;;79.28;57.53;;;13.20;59.10;;;;;;4918702;28;93025;-51
2023/01/26 02:57:49;;;;;;;77.38;58.42;;;13.20;59.20;;;;;;4915648;28;92525;-48
2023/01/26 03:00:26;;;;;;;75.72;57.20;;;13.20;59.10;;;;;;4917131;28;94239;-52
2023/01/26 03:02:54;;;;;;;76.00;57.22;;;13.20;58.90;;;;;;4919071;28;93023;-53
2023/01/26 03:05:20;;;;;;;74.85;56.83;;;13.20;59.10;;;;;;4910694;28;97140;-48
2023/01/26 03:07:46;;;;;;;79.45;57.55;;;13.20;59.30;;;;;;4938371;28;92047;-51
2023/01/26 03:10:12;;;;;;;74.85;57.28;;;13.20;59.20;;;;;;4924457;28;90508;-51
2023/01/26 03:12:38;;;;;;;74.32;56.92;;;13.20;59.20;;;;;;4924495;28;93855;-49
2023/01/26 03:17:49;;;;;;;74.57;56.70;;;13.20;59.10;;;;;;4913585;28;93586;-49
2023/01/26 03:28:27;;;;;;;74.28;56.45;;;13.20;59.10;;;;;;4915129;28;95968;-48
2023/01/26 03:30:56;;;;;;;73.80;56.60;;;13.20;59.20;;;;;;4910560;28;90032;-52
2023/01/26 03:33:22;;;;;;;72.72;56.38;;;13.10;59.00;;;;;;4916382;28;92452;-53
2023/01/26 03:35:51;;;;;;;73.65;56.83;;;13.20;59.10;;;;;;4912755;28;90762;-49
2023/01/26 03:38:16;;;;;;;74.72;56.47;;;13.20;59.10;;;;;;4914388;28;92193;-46
2023/01/26 03:57:07;;;;;;;71.90;55.45;;;13.20;58.90;;;;;;4913501;28;90778;-52
2023/01/26 03:59:38;;;;;;;71.70;55.83;;;13.20;58.90;;;;;;4912347;28;90513;-50
2023/01/26 04:10:20;;;;;;;74.82;56.10;;;13.30;58.70;;;;;;4915103;28;93673;-47
2023/01/26 04:23:49;;;;;;;70.55;55.13;;;13.20;58.70;;;;;;4916525;28;95521;-51
2023/01/26 04:26:15;;;;;;;69.13;55.17;;;13.20;58.80;;;;;;4908589;28;91908;-53
2023/01/26 04:28:41;;;;;;;71.07;54.92;;;13.20;58.80;;;;;;4915942;28;90127;-48
2023/01/26 04:31:07;;;;;;;70.95;54.35;;;13.20;58.80;;;;;;4917941;28;93095;-51
2023/01/26 04:33:32;;;;;;;69.38;54.88;;;13.20;58.70;;;;;;4920224;28;91397;-53
2023/01/26 04:36:06;;;;;;;71.18;55.30;;;13.30;58.50;;;;;;4915553;28;92622;-49
2023/01/26 04:38:32;;;;;;;69.47;55.33;;;13.30;58.60;;;;;;4922654;28;92791;-52
2023/01/26 04:40:57;;;;;;;69.70;54.80;;;13.20;58.50;;;;;;4914738;28;92338;-49
2023/01/26 04:43:23;;;;;;;67.80;54.03;;;13.30;58.60;;;;;;4920555;28;91360;-52
2023/01/26 04:46:06;;;;;;;70.10;55.13;;;13.20;58.60;;;;;;4923869;28;93287;-50
2023/01/26 04:48:33;;;;;;;72.30;55.35;;;13.20;58.60;;;;;;4919897;28;91027;-52
2023/01/26 04:51:02;;;;;;;68.80;54.53;;;13.20;58.60;;;;;;4918872;28;91976;-52
2023/01/26 04:53:28;;;;;;;70.53;55.15;;;13.30;58.70;;;;;;4919891;28;92083;-53
2023/01/26 04:55:54;;;;;;;67.82;54.08;;;13.30;58.50;;;;;;4919555;28;92701;-48
2023/01/26 04:58:20;;;;;;;71.43;55.05;;;13.20;58.50;;;;;;4912990;28;91409;-49
2023/01/26 05:00:50;;;;;;;70.43;53.85;;;13.30;58.50;;;;;;4921350;28;92549;-53
2023/01/26 05:03:16;;;;;;;68.65;53.58;;;13.20;58.50;;;;;;4924599;28;90995;-52
2023/01/26 05:05:42;;;;;;;68.43;54.33;;;13.20;58.40;;;;;;4915962;28;91830;-47
2023/01/26 05:08:07;;;;;;;66.55;53.67;;;13.20;58.50;;;;;;4906986;28;94591;-46
2023/01/26 05:10:33;;;;;;;67.60;54.22;;;13.20;58.60;;;;;;4918554;28;91435;-53
2023/01/26 05:12:59;;;;;;;69.72;54.67;;;13.20;58.60;;;;;;4917504;28;93497;-49
2023/01/26 05:15:25;;;;;;;68.85;54.28;;;13.20;58.60;;;;;;4923466;28;91845;-46
2023/01/26 05:17:50;;;;;;;67.30;53.83;;;13.20;58.60;;;;;;4925710;28;91826;-51
2023/01/26 05:20:16;;;;;;;68.88;54.45;;;13.20;58.50;;;;;;4912675;28;96322;-50
2023/01/26 05:22:42;;;;;;;68.53;54.47;;;13.20;58.60;;;;;;4919713;28;89898;-49
2023/01/26 05:25:09;;;;;;;68.32;53.67;;;13.10;58.80;;;;;;4919161;28;92285;-51
2023/01/26 05:27:34;;;;;;;70.50;54.08;;;13.20;58.60;;;;;;4910697;28;95556;-54
2023/01/26 05:30:00;;;;;;;66.70;53.63;;;13.20;58.50;;;;;;4925066;28;93290;-53
2023/01/26 05:32:30;;;;;;;65.93;53.58;;;13.20;58.60;;;;;;4921930;28;89679;-54
2023/01/26 05:34:56;;;;;;;65.78;52.97;;;13.20;58.60;;;;;;4910471;28;91312;-51
2023/01/26 05:37:24;;;;;;;66.78;53.00;;;13.20;58.50;;;;;;4911719;28;92554;-49
2023/01/26 05:39:50;;;;;;;70.03;53.80;;;13.20;58.50;;;;;;4924958;28;90307;-52
2023/01/26 05:42:16;;;;;;;67.32;53.75;;;13.20;58.60;;;;;;4918253;28;90372;-49
2023/01/26 05:44:41;;;;;;;67.82;53.75;;;13.20;58.70;;;;;;4926127;28;93025;-52
2023/01/26 05:47:07;;;;;;;67.50;53.20;;;13.20;58.60;;;;;;4912056;28;94758;-49
2023/01/26 05:49:33;;;;;;;67.22;53.80;;;13.20;58.60;;;;;;4911690;28;92835;-50
2023/01/26 05:51:59;;;;;;;67.00;53.35;;;13.20;58.60;;;;;;4913639;28;92304;-50
2023/01/26 05:54:24;;;;;;;69.78;54.63;;;13.10;58.90;;;;;;4912828;28;93752;-46
2023/01/26 05:56:52;;;;;;;65.20;52.97;;;13.20;58.90;;;;;;4912586;28;96091;-52
2023/01/26 05:59:17;;;;;;;66.70;52.92;;;13.20;58.90;;;;;;4927786;28;92337;-48
2023/01/26 06:01:43;;;;;;;65.93;53.08;;;13.20;58.80;;;;;;4922134;28;95115;-52
2023/01/26 06:04:09;;;;;;;64.35;52.80;;;13.20;58.70;;;;;;4915399;28;91769;-51
2023/01/26 06:06:35;;;;;;;65.75;53.85;;;13.10;58.80;;;;;;4909514;28;95790;-46
2023/01/26 06:09:00;;;;;;;66.43;52.60;;;13.20;59.00;;;;;;4915467;28;93010;-52
2023/01/26 06:11:26;;;;;;;66.88;53.78;;;13.20;58.90;;;;;;4912833;28;95568;-48
2023/01/26 06:13:52;;;;;;;65.45;52.67;;;13.20;58.80;;;;;;4921475;28;92141;-52
2023/01/26 06:16:17;;;;;;;67.57;52.60;;;13.10;59.00;;;;;;4918824;28;92076;-49
2023/01/26 06:18:48;;;;;;;65.68;53.13;;;13.20;59.00;;;;;;4917243;28;93496;-51
2023/01/26 06:21:13;;;;;;;67.75;53.50;;;13.20;58.90;;;;;;4915877;28;95596;-50
2023/01/26 06:23:39;;;;;;;66.60;53.35;;;13.20;59.10;;;;;;4916827;28;92494;-48
2023/01/26 06:26:06;;;;;;;66.63;53.53;;;13.10;59.20;;;;;;4916316;28;93993;-47
2023/01/26 06:28:32;;;;;;;64.13;53.55;;;13.10;59.20;;;;;;4907403;28;92924;-51
2023/01/26 06:31:02;;;;;;;65.68;52.50;;;13.10;58.90;;;;;;4909857;28;94323;-52
2023/01/26 06:33:28;;;;;;;65.30;52.70;;;13.10;59.30;;;;;;4913921;28;93440;-50
2023/01/26 06:35:54;;;;;;;64.85;51.40;;;13.20;59.30;;;;;;4911628;28;90562;-50
2023/01/26 06:38:20;;;;;;;70.90;53.40;;;13.20;59.30;;;;;;4917774;28;94631;-50
2023/01/26 06:40:46;;;;;;;65.72;52.85;;;13.20;59.30;;;;;;4925936;28;90498;-49
2023/01/26 06:43:11;;;;;;;66.63;53.15;;;13.20;59.30;;;;;;4909536;28;91152;-46
2023/01/26 06:45:37;;;;;;;66.72;54.25;;;13.20;59.60;;;;;;4912689;28;93034;-52
2023/01/26 06:48:03;;;;;;;65.30;53.53;;;13.20;59.90;;;;;;4917217;28;90447;-49
2023/01/26 06:50:32;;;;;;;66.75;53.22;;;13.20;59.60;;;;;;4921975;28;91861;-48
2023/01/26 06:53:01;;;;;;;66.68;53.47;;;13.20;59.50;;;;;;4922251;28;92050;-48
2023/01/26 06:55:36;;;;;;;67.95;52.80;;;13.20;59.60;;;;;;4933911;28;91154;-51
2023/01/26 06:58:02;;;;;;;66.82;54.03;;;13.10;59.50;;;;;;4921258;28;91164;-51
2023/01/26 07:00:27;;;;;;;66.78;53.10;;;13.10;59.80;;;;;;4919308;28;91810;-48
2023/01/26 07:02:53;;;;;;;63.85;52.92;;;13.10;59.70;;;;;;4921007;28;93330;-52
2023/01/26 07:05:19;;;;;;;62.80;52.67;;;13.10;59.70;;;;;;4922200;28;92657;-49
2023/01/26 07:07:44;;;;;;;67.88;53.33;;;13.10;59.70;;;;;;4916046;28;93198;-53
2023/01/26 07:10:10;;;;;;;63.95;52.67;;;13.10;59.60;;;;;;4934079;28;93423;-49
2023/01/26 07:12:45;;;;;;;66.28;53.70;;;13.00;59.60;;;;;;4917802;28;93170;-52
2023/01/26 07:15:12;;;;;;;68.05;53.78;;;13.10;59.70;;;;;;4918488;28;90691;-48
2023/01/26 07:17:38;;;;;;;64.57;52.58;;;13.10;59.50;;;;;;4921241;28;90998;-51
2023/01/26 07:20:05;;;;;;;66.38;53.15;;;13.10;59.60;;;;;;4924066;28;91680;-51
2023/01/26 07:22:31;;;;;;;65.57;52.67;;;13.10;59.50;;;;;;4910468;28;93068;-49
2023/01/26 07:24:56;;;;;;;66.05;52.55;;;13.10;59.40;;;;;;4918284;28;91681;-50
2023/01/26 07:27:22;;;;;;;65.13;52.70;;;13.10;59.50;;;;;;4917933;28;94078;-46
2023/01/26 07:29:48;;;;;;;66.13;53.50;;;13.10;59.40;;;;;;4919537;28;90863;-51
2023/01/26 07:32:14;;;;;;;62.35;51.72;;;13.00;59.40;;;;;;4929651;28;93968;-52
2023/01/26 07:34:40;;;;;;;65.20;53.05;;;13.10;59.50;;;;;;4921853;28;90372;-51
2023/01/26 07:37:05;;;;;;;66.97;52.70;;;13.00;59.50;;;;;;4926963;28;91646;-50
2023/01/26 07:39:31;;;;;;;64.47;52.22;;;13.10;59.40;;;;;;4920661;28;92441;-50
2023/01/26 07:41:57;;;;;;;67.70;53.30;;;13.10;59.40;;;;;;4924462;28;93651;-52
2023/01/26 07:44:23;;;;;;;66.82;53.05;;;13.10;59.30;;;;;;4926571;28;90165;-47
2023/01/26 07:46:48;;;;;;;62.95;52.35;;;13.00;59.40;;;;;;4918232;28;92343;-47
2023/01/26 07:49:14;;;;;;;64.97;52.63;;;13.10;59.30;;;;;;4927147;28;91844;-52
2023/01/26 07:51:40;;;;;;;65.45;53.50;;;13.00;59.50;;;;;;4933377;28;93847;-52
2023/01/26 07:54:06;;;;;;;65.82;52.83;;;13.00;59.40;;;;;;4923780;28;92106;-51
2023/01/26 07:56:32;;;;;;;65.80;52.83;;;13.00;59.40;;;;;;4923396;28;93653;-47
2023/01/26 07:58:57;;;;;;;63.65;52.47;;;13.00;59.40;;;;;;4918899;28;92805;-53
2023/01/26 08:01:23;;;;;;;63.72;52.60;;;13.00;59.40;;;;;;4924311;28;96624;-46
2023/01/26 08:03:50;;;;;;;63.53;52.55;;;13.00;59.30;;;;;;4927870;28;94072;-50
2023/01/26 08:06:17;;;;;;;67.40;53.25;;;13.00;59.40;;;;;;4934050;28;90672;-50
2023/01/26 08:08:43;;;;;;;60.58;50.85;;;13.00;59.40;;;;;;4918417;28;90583;-50
2023/01/26 08:11:11;;;;;;;65.13;53.00;;;13.00;59.60;;;;;;4910280;28;93570;-48
2023/01/26 08:13:37;;;;;;;64.82;52.55;;;13.10;59.30;;;;;;4928767;28;95758;-49
2023/01/26 08:16:11;;;;;;;64.05;52.88;;;13.00;59.20;;;;;;4925152;28;92214;-46
2023/01/26 08:18:41;;;;;;;63.20;51.53;;;13.00;59.30;;;;;;4926359;28;95637;-52
2023/01/26 08:21:07;;;;;;;63.88;53.05;;;13.00;59.30;;;;;;4919244;28;91804;-45
2023/01/26 08:23:33;;;;;;;65.03;52.33;;;13.00;59.30;;;;;;4918243;28;91970;-49
2023/01/26 08:26:04;;;;;;;65.60;53.38;;;13.00;59.30;;;;;;4920014;28;92321;-48
2023/01/26 08:28:30;;;;;;;65.32;52.85;;;13.00;59.40;;;;;;4916631;28;93149;-49
2023/01/26 08:30:56;;;;;;;65.80;53.20;;;13.00;59.50;;;;;;4918854;28;91103;-46
2023/01/26 08:33:23;;;;;;;65.00;52.03;;;13.00;59.40;;;;;;4913673;28;90676;-52
2023/01/26 08:35:48;;;;;;;64.28;52.40;;;13.30;60.10;;;;;;4916966;28;92686;-48
2023/01/26 08:38:14;;;;;;;63.08;51.95;;;13.80;59.70;;;;;;4917159;28;90622;-57
2023/01/26 08:40:40;;;;;;;66.20;52.58;;;13.90;58.80;;;;;;4913391;28;92215;-56
2023/01/26 08:43:05;;;;;;;66.38;52.42;;;14.00;58.40;;;;;;4912643;28;92736;-44
2023/01/26 08:45:31;;;;;;;66.78;53.00;;;14.10;59.10;;;;;;4926203;28;90634;-56
2023/01/26 08:47:57;;;;;;;65.65;52.65;;;14.20;58.70;;;;;;4933784;28;89932;-52
2023/01/26 08:50:23;;;;;;;68.32;52.55;;;14.30;58.40;;;;;;4912960;28;94038;-53
2023/01/26 08:52:49;;;;;;;65.82;52.67;;;14.20;58.60;;;;;;4917448;28;92320;-52
2023/01/26 08:55:14;;;;;;;64.40;52.88;;;14.30;58.90;;;;;;4913861;28;91966;-48
2023/01/26 08:57:40;;;;;;;68.10;52.70;;;14.40;59.20;;;;;;4915836;28;92261;-44
2023/01/26 09:00:06;;;;;;;66.38;52.97;;;14.50;59.20;;;;;;4917105;28;92536;-49
2023/01/26 09:02:32;;;;;;;67.07;52.47;;;14.60;59.50;;;;;;4928893;28;92520;-50
2023/01/26 09:04:58;;;;;;;64.97;52.20;;;14.60;59.60;;;;;;4905093;28;91912;-56
2023/01/26 09:07:23;;;;;;;66.75;53.03;;;14.60;59.50;;;;;;4918950;28;91031;-47
2023/01/26 09:09:49;;;;;;;63.30;51.65;;;14.60;59.20;;;;;;4915727;28;94385;-49
2023/01/26 09:12:15;;;;;;;64.07;51.65;;;14.60;58.90;;;;;;4910619;28;91974;-56
2023/01/26 09:14:40;;;;;;;62.67;52.13;;;14.50;58.80;;;;;;4917743;28;95673;-46
2023/01/26 09:17:06;;;;;;;65.18;52.00;;;14.50;58.70;;;;;;4937838;28;90967;-55
2023/01/26 09:19:32;;;;;;;63.47;51.75;;;14.50;59.60;;;;;;4936179;28;92035;-53
2023/01/26 09:21:57;;;;;;;64.68;51.80;;;14.60;59.60;;;;;;4941354;28;91180;-54
2023/01/26 09:24:23;;;;;;;62.65;50.95;;;14.60;59.10;;;;;;4947088;28;91506;-50
2023/01/26 09:26:49;;;;;;;63.10;51.63;;;14.60;59.00;;;;;;4938486;28;90552;-55
2023/01/26 09:29:15;;;;;;;64.30;51.33;;;14.50;58.80;;;;;;4934936;28;92238;-51
2023/01/26 09:31:41;;;;;;;63.13;51.97;;;14.60;58.50;;;;;;4944393;28;92422;-53
2023/01/26 09:34:07;;;;;;;64.13;51.40;;;14.60;58.30;;;;;;4949705;28;94275;-55
2023/01/26 09:36:33;;;;;;;63.38;51.63;;;14.60;58.20;;;;;;4941052;28;93617;-52
2023/01/26 09:38:59;;;;;;;66.53;51.70;;;14.60;58.00;;;;;;4947668;28;91174;-54
2023/01/26 09:42:01;;;;;;;66.30;52.08;;;14.60;57.90;;;;;;4947326;28;91098;-46
2023/01/26 09:44:32;;;;;;;63.40;51.10;;;14.60;57.90;;;;;;4952209;28;90812;-51
2023/01/26 09:47:25;;;;;;;65.30;51.60;;;14.50;57.80;;;;;;4980984;28;89897;-53
2023/01/26 09:50:01;;;;;;;65.65;52.28;;;14.60;57.70;;;;;;4947276;28;91131;-45
2023/01/26 09:52:32;;;;;;;62.75;52.22;;;14.60;57.50;;;;;;4941947;28;91324;-51
2023/01/26 09:55:00;;;;;;;64.18;51.28;;;14.60;57.50;;;;;;4944379;28;93376;-54
2023/01/26 09:57:57;;;;;;;63.22;52.03;;;14.50;57.50;;;;;;4946373;28;90814;-51
2023/01/26 10:00:37;;;;;;;63.33;51.05;;;14.50;57.40;;;;;;4935379;28;90539;-53
2023/01/26 10:03:24;;;;;;;62.65;51.25;;;14.50;57.40;;;;;;4941920;28;95958;-56
2023/01/26 10:06:05;;;;;;;62.22;51.53;;;14.50;57.30;;;;;;4939430;28;90142;-53
2023/01/26 10:08:30;;;;;;;63.67;51.42;;;14.50;57.30;;;;;;4939764;28;91124;-55
2023/01/26 10:11:17;;;;;;;63.28;51.50;;;14.50;57.20;;;;;;4941614;28;91389;-55
2023/01/26 10:13:52;;;;;;;61.38;51.42;;;14.50;57.30;;;;;;4942506;28;90842;-54
2023/01/26 10:16:18;;;;;;;62.47;51.17;;;14.50;57.10;;;;;;4942249;28;91427;-48
2023/01/26 10:18:58;;;;;;;62.75;50.97;;;14.50;57.10;;;;;;4941098;28;89590;-55
2023/01/26 10:21:29;;;;;;;65.82;51.45;;;14.50;57.10;;;;;;4937206;28;96181;-54
2023/01/26 10:23:59;;;;;;;65.70;52.05;;;14.50;57.10;;;;;;4946924;28;91206;-46
2023/01/26 10:26:30;;;;;;;62.58;50.67;;;14.50;57.10;;;;;;4964859;28;90437;-53
2023/01/26 10:28:56;;;;;;;63.43;51.43;;;14.50;56.90;;;;;;4941979;28;90100;-54
2023/01/26 10:31:28;;;;;;;62.38;50.83;;;14.60;56.80;;;;;;4924980;28;91425;-52
2023/01/26 10:33:59;;;;;;;62.88;51.22;;;14.60;56.90;;;;;;4945415;28;89911;-55
2023/01/26 10:36:30;;;;;;;60.47;50.40;;;14.50;56.80;;;;;;4945687;28;91255;-49
2023/01/26 10:39:04;;;;;;;63.90;51.60;;;14.60;56.80;;;;;;4946347;28;90710;-53
2023/01/26 10:41:29;;;;;;;61.72;50.83;;;14.50;56.80;;;;;;4977074;28;90997;-55
2023/01/26 10:44:01;;;;;;;61.72;50.70;;;14.60;56.90;;;;;;4941399;28;94665;-54
2023/01/26 10:46:34;;;;;;;61.28;50.45;;;14.60;56.70;;;;;;4936599;28;93506;-52
2023/01/26 10:49:13;;;;;;;65.10;51.33;;;14.60;56.70;;;;;;4947775;28;90236;-51
2023/01/26 10:51:44;;;;;;;62.50;50.35;;;14.60;56.60;;;;;;4932266;28;97723;-52
2023/01/26 10:54:22;;;;;;;60.88;50.63;;;14.60;56.50;;;;;;4946390;28;91784;-53
2023/01/26 10:57:13;;;;;;;64.75;50.92;;;14.60;56.40;;;;;;4940156;28;89889;-46
2023/01/26 10:59:46;;;;;;;60.63;50.20;;;14.60;56.50;;;;;;4938470;28;91014;-55
2023/01/26 11:02:18;;;;;;;61.08;50.47;;;14.60;56.30;;;;;;4940111;28;92586;-47
2023/01/26 11:05:04;;;;;;;59.90;49.25;;;14.60;56.50;;;;;;4945646;28;91565;-53
2023/01/26 11:07:37;;;;;;;62.25;49.97;;;14.60;56.40;;;;;;4950337;28;93016;-52
2023/01/26 11:10:22;;;;;;;61.38;49.63;;;14.60;56.50;;;;;;4940288;28;93085;-53
2023/01/26 11:12:48;;;;;;;61.88;49.60;;;14.60;56.40;;;;;;4940012;28;95836;-47
2023/01/26 11:15:21;;;;;;;62.60;49.50;;;14.70;56.40;;;;;;4944115;28;92971;-50
2023/01/26 11:18:00;;;;;;;61.55;49.13;;;14.70;56.40;;;;;;4929613;28;92032;-50
2023/01/26 11:20:47;;;;;;;61.78;49.50;;;14.60;56.40;;;;;;4953564;28;90183;-49
2023/01/26 11:23:21;;;;;;;58.75;49.28;;;14.60;56.40;;;;;;4939148;28;91534;-52
2023/01/26 11:26:14;;;;;;;58.40;48.60;;;14.70;56.50;;;;;;4936560;28;90800;-51
2023/01/26 11:28:51;;;;;;;64.60;48.67;;;14.60;56.30;;;;;;4939522;28;91723;-53
2023/01/26 11:31:29;;;;;;;60.10;48.47;;;14.70;56.40;;;;;;4943009;28;90529;-54
2023/01/26 11:34:01;;;;;;;59.42;48.42;;;14.60;56.30;;;;;;4935861;28;91876;-53
2023/01/26 11:36:33;;;;;;;62.80;48.55;;;14.60;56.40;;;;;;4951799;28;90780;-55
2023/01/26 11:39:23;;;;;;;58.90;48.38;;;14.60;56.50;;;;;;4954615;28;91990;-52
2023/01/26 11:42:06;;;;;;;59.00;48.53;;;14.60;56.50;;;;;;4947870;28;89974;-54
2023/01/26 11:45:00;;;;;;;63.47;49.13;;;14.70;56.40;;;;;;4947295;28;91633;-49
2023/01/26 11:47:55;;;;;;;58.08;48.17;;;14.60;56.40;;;;;;4945656;28;91490;-50
2023/01/26 11:50:34;;;;;;;58.22;48.20;;;14.70;56.40;;;;;;4954862;28;91468;-50
2023/01/26 11:53:35;;;;;;;59.30;48.30;;;14.70;56.50;;;;;;4944414;28;90798;-56
2023/01/26 11:56:15;;;;;;;59.63;48.50;;;14.70;56.40;;;;;;4946926;28;94462;-55
2023/01/26 11:59:02;;;;;;;60.13;48.63;;;14.70;56.40;;;;;;4942036;28;91399;-52
2023/01/26 12:01:33;;;;;;;60.42;48.28;;;14.70;56.40;;;;;;4948310;28;90323;-53
2023/01/26 12:03:58;;;;;;;58.87;48.50;;;14.70;56.40;;;;;;4936178;28;95184;-54
2023/01/26 12:06:39;;;;;;;59.47;48.00;;;14.70;56.40;;;;;;4937773;28;92169;-55
2023/01/26 12:09:20;;;;;;;60.08;48.30;;;14.70;56.40;;;;;;4938624;28;91999;-49
2023/01/26 12:12:09;;;;;;;57.92;48.10;;;14.70;56.40;;;;;;4945965;28;93173;-54
2023/01/26 12:14:54;;;;;;;58.28;47.92;;;14.70;56.30;;;;;;4937749;28;89835;-46
2023/01/26 12:17:55;;;;;;;57.40;47.70;;;14.70;56.40;;;;;;4948245;28;91313;-52
2023/01/26 12:20:36;;;;;;;58.85;48.10;;;14.70;56.40;;;;;;4931660;28;92031;-52
2023/01/26 12:23:09;;;;;;;57.95;48.22;;;14.80;56.40;;;;;;4941085;28;90997;-53
2023/01/26 12:25:34;;;;;;;58.55;48.25;;;14.70;56.40;;;;;;4949953;28;90640;-52
2023/01/26 12:28:20;;;;;;;59.00;48.00;;;14.70;56.50;;;;;;4934275;28;93115;-55
2023/01/26 12:30:50;;;;;;;57.60;47.50;;;14.70;56.30;;;;;;4942060;28;91415;-52
2023/01/26 12:33:15;;;;;;;60.05;48.05;;;14.70;56.50;;;;;;4957554;28;90985;-52
2023/01/26 12:36:04;;;;;;;59.63;47.72;;;14.70;56.40;;;;;;4951310;28;92233;-52
2023/01/26 12:38:50;;;;;;;57.55;47.90;;;14.70;56.50;;;;;;4937908;28;93838;-53
2023/01/26 12:41:46;;;;;;;57.88;47.50;;;14.70;56.60;;;;;;4948274;28;89950;-54
2023/01/26 12:44:36;;;;;;;60.58;47.90;;;14.70;56.40;;;;;;4939538;28;90346;-45
2023/01/26 12:47:08;;;;;;;59.10;47.72;;;14.80;56.30;;;;;;4955407;28;89940;-44
2023/01/26 12:49:39;;;;;;;57.72;47.72;;;14.70;56.40;;;;;;4943773;28;91672;-54
2023/01/26 12:52:29;;;;;;;55.83;47.58;;;14.70;56.40;;;;;;4946266;28;91096;-55
2023/01/26 12:55:04;;;;;;;61.80;47.50;;;14.80;56.50;;;;;;4941341;28;92265;-52
2023/01/26 12:57:41;;;;;;;58.33;47.47;;;14.80;56.50;;;;;;4959320;28;89595;-55
2023/01/26 13:00:19;;;;;;;61.20;47.75;;;14.80;56.50;;;;;;4938595;28;92207;-51
2023/01/26 13:02:50;;;;;;;59.58;47.85;;;14.80;56.60;;;;;;4939531;28;94556;-55
2023/01/26 13:05:33;;;;;;;57.72;47.75;;;14.80;56.50;;;;;;4946233;28;93922;-48
2023/01/26 13:08:30;;;;;;;61.10;48.03;;;14.80;56.50;;;;;;4941498;28;89901;-47
2023/01/26 13:10:57;;;;;;;58.53;47.42;;;14.80;56.40;;;;;;4940415;28;91494;-54
2023/01/26 13:13:27;;;;;;;58.78;47.22;;;14.80;56.50;;;;;;4935151;28;92132;-53
2023/01/26 13:16:15;;;;;;;63.28;47.25;;;14.80;56.40;;;;;;4939079;28;96055;-53
2023/01/26 13:18:47;;;;;;;63.67;47.72;;;14.80;56.40;;;;;;4939764;28;92979;-55
2023/01/26 13:21:26;;;;;;;58.22;47.63;;;14.80;56.40;;;;;;4940536;28;92244;-54
2023/01/26 13:23:52;;;;;;;61.03;47.53;;;14.80;56.40;;;;;;4944111;28;93776;-51
2023/01/26 13:26:40;;;;;;;59.72;47.15;;;14.80;56.30;;;;;;4941324;28;91647;-54
2023/01/26 13:29:23;;;;;;;58.72;47.30;;;14.80;56.40;;;;;;4948095;28;92109;-54